sensor_id;sensor_type;location;lat;lon;timestamp;P1;durP1;ratioP1;P2;durP2;ratioP2
65753;SDS011;69207;47.502;18.940;2023-04-30T00:00:38;5.87;;;4.10;;
65753;SDS011;69207;47.502;18.940;2023-04-30T00:01:41;6.18;;;4.70;;
65753;SDS011;69207;47.502;18.940;2023-04-30T00:02:44;9.00;;;4.32;;
65753;SDS011;69207;47.502;18.940;2023-04-30T00:03:48;5.55;;;4.20;;
65753;SDS011;69207;47.502;18.940;2023-04-30T00:04:51;9.20;;;4.10;;
65753;SDS011;69207;47.502;18.940;2023-04-30T00:05:53;6.22;;;3.90;;
65753;SDS011;69207;47.502;18.940;2023-04-30T00:06:56;5.43;;;4.20;;
65753;SDS011;69207;47.502;18.940;2023-04-30T00:07:59;7.18;;;4.22;;
65753;SDS011;69207;47.502;18.940;2023-04-30T00:09:02;7.35;;;4.65;;
65753;SDS011;69207;47.502;18.940;2023-04-30T00:10:05;6.40;;;4.00;;
65753;SDS011;69207;47.502;18.940;2023-04-30T00:11:08;7.05;;;4.20;;
65753;SDS011;69207;47.502;18.940;2023-04-30T00:12:11;6.15;;;4.15;;
65753;SDS011;69207;47.502;18.940;2023-04-30T00:13:14;5.97;;;4.10;;
65753;SDS011;69207;47.502;18.940;2023-04-30T00:14:17;6.82;;;4.10;;
65753;SDS011;69207;47.502;18.940;2023-04-30T00:15:20;7.97;;;4.40;;
65753;SDS011;69207;47.502;18.940;2023-04-30T00:16:22;6.93;;;4.53;;
65753;SDS011;69207;47.502;18.940;2023-04-30T00:17:25;7.90;;;4.65;;
65753;SDS011;69207;47.502;18.940;2023-04-30T00:18:28;7.40;;;4.22;;
65753;SDS011;69207;47.502;18.940;2023-04-30T00:19:31;6.47;;;4.00;;
65753;SDS011;69207;47.502;18.940;2023-04-30T00:20:34;8.32;;;3.92;;
65753;SDS011;69207;47.502;18.940;2023-04-30T00:21:37;7.53;;;4.47;;
65753;SDS011;69207;47.502;18.940;2023-04-30T00:22:40;6.70;;;4.82;;
65753;SDS011;69207;47.502;18.940;2023-04-30T00:23:43;7.35;;;4.32;;
65753;SDS011;69207;47.502;18.940;2023-04-30T00:24:46;6.25;;;4.50;;
65753;SDS011;69207;47.502;18.940;2023-04-30T00:25:49;6.82;;;4.55;;
65753;SDS011;69207;47.502;18.940;2023-04-30T00:26:52;7.00;;;4.50;;
65753;SDS011;69207;47.502;18.940;2023-04-30T00:27:54;6.72;;;3.97;;
65753;SDS011;69207;47.502;18.940;2023-04-30T00:28:57;7.68;;;4.30;;
65753;SDS011;69207;47.502;18.940;2023-04-30T00:30:00;7.85;;;4.40;;
65753;SDS011;69207;47.502;18.940;2023-04-30T00:31:03;5.97;;;4.10;;
65753;SDS011;69207;47.502;18.940;2023-04-30T00:32:08;5.82;;;4.43;;
65753;SDS011;69207;47.502;18.940;2023-04-30T00:33:11;6.53;;;4.72;;
65753;SDS011;69207;47.502;18.940;2023-04-30T00:34:14;8.82;;;4.68;;
65753;SDS011;69207;47.502;18.940;2023-04-30T00:35:17;9.45;;;5.20;;
65753;SDS011;69207;47.502;18.940;2023-04-30T00:36:20;6.10;;;4.62;;
65753;SDS011;69207;47.502;18.940;2023-04-30T00:37:23;7.32;;;4.82;;
65753;SDS011;69207;47.502;18.940;2023-04-30T00:38:25;7.45;;;4.70;;
65753;SDS011;69207;47.502;18.940;2023-04-30T00:39:28;7.12;;;4.15;;
65753;SDS011;69207;47.502;18.940;2023-04-30T00:40:34;6.45;;;4.22;;
65753;SDS011;69207;47.502;18.940;2023-04-30T00:41:38;4.82;;;4.18;;
65753;SDS011;69207;47.502;18.940;2023-04-30T00:42:42;6.37;;;4.57;;
65753;SDS011;69207;47.502;18.940;2023-04-30T00:43:45;6.82;;;4.35;;
65753;SDS011;69207;47.502;18.940;2023-04-30T00:44:48;7.82;;;4.50;;
65753;SDS011;69207;47.502;18.940;2023-04-30T00:45:51;6.68;;;4.45;;
65753;SDS011;69207;47.502;18.940;2023-04-30T00:46:53;6.55;;;4.45;;
65753;SDS011;69207;47.502;18.940;2023-04-30T00:47:57;7.78;;;4.50;;
65753;SDS011;69207;47.502;18.940;2023-04-30T00:49:00;11.63;;;4.40;;
65753;SDS011;69207;47.502;18.940;2023-04-30T00:50:06;6.82;;;4.43;;
65753;SDS011;69207;47.502;18.940;2023-04-30T00:51:09;5.30;;;4.10;;
65753;SDS011;69207;47.502;18.940;2023-04-30T00:52:12;6.37;;;4.70;;
65753;SDS011;69207;47.502;18.940;2023-04-30T00:53:15;7.18;;;4.05;;
65753;SDS011;69207;47.502;18.940;2023-04-30T00:54:19;8.45;;;4.47;;
65753;SDS011;69207;47.502;18.940;2023-04-30T00:55:22;6.00;;;4.30;;
65753;SDS011;69207;47.502;18.940;2023-04-30T00:56:25;8.13;;;4.35;;
65753;SDS011;69207;47.502;18.940;2023-04-30T00:57:28;7.15;;;4.18;;
65753;SDS011;69207;47.502;18.940;2023-04-30T00:58:31;7.75;;;4.57;;
65753;SDS011;69207;47.502;18.940;2023-04-30T00:59:35;5.95;;;4.30;;
65753;SDS011;69207;47.502;18.940;2023-04-30T01:00:38;6.32;;;4.20;;
65753;SDS011;69207;47.502;18.940;2023-04-30T01:01:48;7.62;;;5.25;;
65753;SDS011;69207;47.502;18.940;2023-04-30T01:02:51;5.57;;;4.30;;
65753;SDS011;69207;47.502;18.940;2023-04-30T01:03:54;6.85;;;4.50;;
65753;SDS011;69207;47.502;18.940;2023-04-30T01:04:57;7.20;;;4.65;;
65753;SDS011;69207;47.502;18.940;2023-04-30T01:06:00;6.37;;;3.92;;
65753;SDS011;69207;47.502;18.940;2023-04-30T01:07:04;6.18;;;4.28;;
65753;SDS011;69207;47.502;18.940;2023-04-30T01:08:08;8.27;;;4.05;;
65753;SDS011;69207;47.502;18.940;2023-04-30T01:09:12;6.18;;;4.30;;
65753;SDS011;69207;47.502;18.940;2023-04-30T01:10:15;8.45;;;4.00;;
65753;SDS011;69207;47.502;18.940;2023-04-30T01:15:13;5.93;;;4.05;;
65753;SDS011;69207;47.502;18.940;2023-04-30T01:16:26;5.15;;;4.07;;
65753;SDS011;69207;47.502;18.940;2023-04-30T01:19:18;8.32;;;4.32;;
65753;SDS011;69207;47.502;18.940;2023-04-30T01:22:04;5.37;;;3.97;;
65753;SDS011;69207;47.502;18.940;2023-04-30T01:28:51;7.53;;;4.25;;
65753;SDS011;69207;47.502;18.940;2023-04-30T01:29:55;5.82;;;3.78;;
65753;SDS011;69207;47.502;18.940;2023-04-30T01:30:59;7.93;;;4.55;;
65753;SDS011;69207;47.502;18.940;2023-04-30T01:32:02;6.60;;;4.47;;
65753;SDS011;69207;47.502;18.940;2023-04-30T01:33:05;5.75;;;4.00;;
65753;SDS011;69207;47.502;18.940;2023-04-30T01:34:07;10.07;;;4.20;;
65753;SDS011;69207;47.502;18.940;2023-04-30T01:35:10;6.95;;;4.50;;
65753;SDS011;69207;47.502;18.940;2023-04-30T01:37:33;10.57;;;4.80;;
65753;SDS011;69207;47.502;18.940;2023-04-30T01:40:39;7.12;;;4.10;;
65753;SDS011;69207;47.502;18.940;2023-04-30T01:41:52;7.43;;;4.30;;
65753;SDS011;69207;47.502;18.940;2023-04-30T01:43:28;5.20;;;3.78;;
65753;SDS011;69207;47.502;18.940;2023-04-30T01:46:13;9.45;;;5.25;;
65753;SDS011;69207;47.502;18.940;2023-04-30T01:47:33;6.78;;;4.85;;
65753;SDS011;69207;47.502;18.940;2023-04-30T01:50:00;11.00;;;5.00;;
65753;SDS011;69207;47.502;18.940;2023-04-30T01:52:24;6.68;;;5.40;;
65753;SDS011;69207;47.502;18.940;2023-04-30T01:53:40;11.75;;;5.70;;
65753;SDS011;69207;47.502;18.940;2023-04-30T01:54:45;10.18;;;5.03;;
65753;SDS011;69207;47.502;18.940;2023-04-30T01:55:58;11.10;;;5.22;;
65753;SDS011;69207;47.502;18.940;2023-04-30T01:58:33;9.77;;;5.35;;
65753;SDS011;69207;47.502;18.940;2023-04-30T01:59:38;9.55;;;5.72;;
65753;SDS011;69207;47.502;18.940;2023-04-30T02:00:41;8.10;;;5.78;;
65753;SDS011;69207;47.502;18.940;2023-04-30T02:01:44;8.63;;;5.40;;
65753;SDS011;69207;47.502;18.940;2023-04-30T02:02:47;9.85;;;5.97;;
65753;SDS011;69207;47.502;18.940;2023-04-30T02:03:50;12.00;;;5.55;;
65753;SDS011;69207;47.502;18.940;2023-04-30T02:04:53;8.90;;;5.28;;
65753;SDS011;69207;47.502;18.940;2023-04-30T02:05:55;9.60;;;6.15;;
65753;SDS011;69207;47.502;18.940;2023-04-30T02:07:00;9.15;;;5.47;;
65753;SDS011;69207;47.502;18.940;2023-04-30T02:08:03;7.75;;;5.47;;
65753;SDS011;69207;47.502;18.940;2023-04-30T02:09:06;8.90;;;5.60;;
65753;SDS011;69207;47.502;18.940;2023-04-30T02:10:09;10.07;;;5.85;;
65753;SDS011;69207;47.502;18.940;2023-04-30T02:11:14;7.87;;;5.55;;
65753;SDS011;69207;47.502;18.940;2023-04-30T02:12:17;6.85;;;5.15;;
65753;SDS011;69207;47.502;18.940;2023-04-30T02:13:19;6.78;;;5.03;;
65753;SDS011;69207;47.502;18.940;2023-04-30T02:14:22;8.32;;;5.30;;
65753;SDS011;69207;47.502;18.940;2023-04-30T02:15:25;8.98;;;5.53;;
65753;SDS011;69207;47.502;18.940;2023-04-30T02:16:28;6.93;;;5.47;;
65753;SDS011;69207;47.502;18.940;2023-04-30T02:17:32;8.18;;;5.43;;
65753;SDS011;69207;47.502;18.940;2023-04-30T02:18:35;7.85;;;5.18;;
65753;SDS011;69207;47.502;18.940;2023-04-30T02:19:38;7.80;;;4.90;;
65753;SDS011;69207;47.502;18.940;2023-04-30T02:20:40;9.52;;;5.30;;
65753;SDS011;69207;47.502;18.940;2023-04-30T02:21:44;10.63;;;5.47;;
65753;SDS011;69207;47.502;18.940;2023-04-30T02:22:47;8.15;;;5.10;;
65753;SDS011;69207;47.502;18.940;2023-04-30T02:23:49;7.10;;;4.95;;
65753;SDS011;69207;47.502;18.940;2023-04-30T02:24:52;9.15;;;4.97;;
65753;SDS011;69207;47.502;18.940;2023-04-30T02:25:57;6.62;;;5.28;;
65753;SDS011;69207;47.502;18.940;2023-04-30T02:26:59;7.37;;;5.03;;
65753;SDS011;69207;47.502;18.940;2023-04-30T02:28:02;8.88;;;5.22;;
65753;SDS011;69207;47.502;18.940;2023-04-30T02:29:05;6.05;;;4.70;;
65753;SDS011;69207;47.502;18.940;2023-04-30T02:30:08;7.10;;;4.80;;
65753;SDS011;69207;47.502;18.940;2023-04-30T02:31:11;7.00;;;4.95;;
65753;SDS011;69207;47.502;18.940;2023-04-30T02:32:14;5.20;;;4.70;;
65753;SDS011;69207;47.502;18.940;2023-04-30T02:33:17;7.43;;;4.65;;
65753;SDS011;69207;47.502;18.940;2023-04-30T02:34:20;12.45;;;5.05;;
65753;SDS011;69207;47.502;18.940;2023-04-30T02:35:23;6.35;;;4.43;;
65753;SDS011;69207;47.502;18.940;2023-04-30T02:36:26;9.65;;;5.10;;
65753;SDS011;69207;47.502;18.940;2023-04-30T02:37:29;9.23;;;4.87;;
65753;SDS011;69207;47.502;18.940;2023-04-30T02:38:32;5.25;;;4.40;;
65753;SDS011;69207;47.502;18.940;2023-04-30T02:39:35;5.75;;;4.55;;
65753;SDS011;69207;47.502;18.940;2023-04-30T02:40:39;7.90;;;4.95;;
65753;SDS011;69207;47.502;18.940;2023-04-30T02:41:43;6.10;;;4.78;;
65753;SDS011;69207;47.502;18.940;2023-04-30T02:42:46;10.73;;;4.97;;
65753;SDS011;69207;47.502;18.940;2023-04-30T02:43:49;6.40;;;5.35;;
65753;SDS011;69207;47.502;18.940;2023-04-30T02:44:53;7.87;;;5.10;;
65753;SDS011;69207;47.502;18.940;2023-04-30T02:45:55;6.10;;;4.90;;
65753;SDS011;69207;47.502;18.940;2023-04-30T02:46:59;8.15;;;5.32;;
65753;SDS011;69207;47.502;18.940;2023-04-30T02:48:02;6.95;;;4.82;;
65753;SDS011;69207;47.502;18.940;2023-04-30T02:49:05;6.65;;;5.00;;
65753;SDS011;69207;47.502;18.940;2023-04-30T02:50:07;9.27;;;4.97;;
65753;SDS011;69207;47.502;18.940;2023-04-30T02:51:11;7.12;;;4.78;;
65753;SDS011;69207;47.502;18.940;2023-04-30T02:52:14;7.25;;;4.60;;
65753;SDS011;69207;47.502;18.940;2023-04-30T02:53:17;7.03;;;4.78;;
65753;SDS011;69207;47.502;18.940;2023-04-30T02:54:20;6.15;;;4.90;;
65753;SDS011;69207;47.502;18.940;2023-04-30T02:55:22;10.63;;;5.35;;
65753;SDS011;69207;47.502;18.940;2023-04-30T02:56:25;7.20;;;5.12;;
65753;SDS011;69207;47.502;18.940;2023-04-30T02:57:28;9.02;;;5.07;;
65753;SDS011;69207;47.502;18.940;2023-04-30T02:58:31;12.50;;;5.10;;
65753;SDS011;69207;47.502;18.940;2023-04-30T02:59:34;9.60;;;5.22;;
65753;SDS011;69207;47.502;18.940;2023-04-30T03:00:37;7.62;;;5.15;;
65753;SDS011;69207;47.502;18.940;2023-04-30T03:01:40;7.53;;;4.80;;
65753;SDS011;69207;47.502;18.940;2023-04-30T03:02:43;8.18;;;4.90;;
65753;SDS011;69207;47.502;18.940;2023-04-30T03:03:46;9.98;;;5.32;;
65753;SDS011;69207;47.502;18.940;2023-04-30T03:04:49;9.45;;;5.50;;
65753;SDS011;69207;47.502;18.940;2023-04-30T03:05:52;8.38;;;5.10;;
65753;SDS011;69207;47.502;18.940;2023-04-30T03:06:58;7.93;;;5.57;;
65753;SDS011;69207;47.502;18.940;2023-04-30T03:08:01;6.62;;;5.10;;
65753;SDS011;69207;47.502;18.940;2023-04-30T03:09:04;10.85;;;5.30;;
65753;SDS011;69207;47.502;18.940;2023-04-30T03:10:08;12.20;;;5.40;;
65753;SDS011;69207;47.502;18.940;2023-04-30T03:11:12;9.10;;;5.68;;
65753;SDS011;69207;47.502;18.940;2023-04-30T03:12:15;8.10;;;5.50;;
65753;SDS011;69207;47.502;18.940;2023-04-30T03:13:18;9.30;;;6.00;;
65753;SDS011;69207;47.502;18.940;2023-04-30T03:14:20;8.65;;;5.57;;
65753;SDS011;69207;47.502;18.940;2023-04-30T03:15:23;8.10;;;5.57;;
65753;SDS011;69207;47.502;18.940;2023-04-30T03:16:26;8.60;;;5.00;;
65753;SDS011;69207;47.502;18.940;2023-04-30T03:17:32;8.18;;;5.68;;
65753;SDS011;69207;47.502;18.940;2023-04-30T03:18:35;9.75;;;5.53;;
65753;SDS011;69207;47.502;18.940;2023-04-30T03:19:38;9.60;;;5.78;;
65753;SDS011;69207;47.502;18.940;2023-04-30T03:20:40;8.07;;;5.30;;
65753;SDS011;69207;47.502;18.940;2023-04-30T03:21:44;10.55;;;6.37;;
65753;SDS011;69207;47.502;18.940;2023-04-30T03:22:47;8.00;;;5.47;;
65753;SDS011;69207;47.502;18.940;2023-04-30T03:23:50;10.65;;;6.85;;
65753;SDS011;69207;47.502;18.940;2023-04-30T03:24:53;12.57;;;7.28;;
65753;SDS011;69207;47.502;18.940;2023-04-30T03:25:56;9.23;;;7.50;;
65753;SDS011;69207;47.502;18.940;2023-04-30T03:26:59;12.40;;;8.40;;
65753;SDS011;69207;47.502;18.940;2023-04-30T03:28:03;11.95;;;8.18;;
65753;SDS011;69207;47.502;18.940;2023-04-30T03:29:06;11.40;;;8.63;;
65753;SDS011;69207;47.502;18.940;2023-04-30T03:30:09;12.45;;;7.95;;
65753;SDS011;69207;47.502;18.940;2023-04-30T03:31:12;14.75;;;8.13;;
65753;SDS011;69207;47.502;18.940;2023-04-30T03:32:15;12.27;;;7.90;;
65753;SDS011;69207;47.502;18.940;2023-04-30T03:33:18;15.95;;;8.70;;
65753;SDS011;69207;47.502;18.940;2023-04-30T03:34:21;14.82;;;8.35;;
65753;SDS011;69207;47.502;18.940;2023-04-30T03:35:24;11.70;;;8.55;;
65753;SDS011;69207;47.502;18.940;2023-04-30T03:36:27;16.87;;;7.57;;
65753;SDS011;69207;47.502;18.940;2023-04-30T03:37:30;12.35;;;7.35;;
65753;SDS011;69207;47.502;18.940;2023-04-30T03:38:33;12.50;;;8.10;;
65753;SDS011;69207;47.502;18.940;2023-04-30T03:39:35;12.00;;;8.55;;
65753;SDS011;69207;47.502;18.940;2023-04-30T03:40:38;15.05;;;9.38;;
65753;SDS011;69207;47.502;18.940;2023-04-30T03:41:41;13.62;;;9.25;;
65753;SDS011;69207;47.502;18.940;2023-04-30T03:42:44;15.70;;;9.15;;
65753;SDS011;69207;47.502;18.940;2023-04-30T03:43:49;13.95;;;10.27;;
65753;SDS011;69207;47.502;18.940;2023-04-30T03:44:52;14.55;;;10.27;;
65753;SDS011;69207;47.502;18.940;2023-04-30T03:45:55;15.30;;;10.20;;
65753;SDS011;69207;47.502;18.940;2023-04-30T03:46:57;19.02;;;12.13;;
65753;SDS011;69207;47.502;18.940;2023-04-30T03:48:00;15.15;;;10.93;;
65753;SDS011;69207;47.502;18.940;2023-04-30T03:49:04;19.37;;;12.37;;
65753;SDS011;69207;47.502;18.940;2023-04-30T03:50:07;17.52;;;11.75;;
65753;SDS011;69207;47.502;18.940;2023-04-30T03:51:11;17.73;;;12.30;;
65753;SDS011;69207;47.502;18.940;2023-04-30T03:52:14;17.27;;;12.65;;
65753;SDS011;69207;47.502;18.940;2023-04-30T03:53:17;19.95;;;12.82;;
65753;SDS011;69207;47.502;18.940;2023-04-30T03:54:19;22.75;;;13.60;;
65753;SDS011;69207;47.502;18.940;2023-04-30T03:55:22;19.58;;;12.88;;
65753;SDS011;69207;47.502;18.940;2023-04-30T03:56:25;18.17;;;13.40;;
65753;SDS011;69207;47.502;18.940;2023-04-30T03:57:28;20.55;;;12.48;;
65753;SDS011;69207;47.502;18.940;2023-04-30T03:58:31;19.00;;;12.70;;
65753;SDS011;69207;47.502;18.940;2023-04-30T03:59:34;19.35;;;13.15;;
65753;SDS011;69207;47.502;18.940;2023-04-30T04:00:38;17.50;;;12.90;;
65753;SDS011;69207;47.502;18.940;2023-04-30T04:01:42;20.70;;;12.60;;
65753;SDS011;69207;47.502;18.940;2023-04-30T04:02:45;18.35;;;12.18;;
65753;SDS011;69207;47.502;18.940;2023-04-30T04:03:48;19.30;;;12.70;;
65753;SDS011;69207;47.502;18.940;2023-04-30T04:04:51;17.92;;;11.85;;
65753;SDS011;69207;47.502;18.940;2023-04-30T04:05:54;17.60;;;11.90;;
65753;SDS011;69207;47.502;18.940;2023-04-30T04:06:57;19.23;;;11.43;;
65753;SDS011;69207;47.502;18.940;2023-04-30T04:08:00;13.60;;;10.68;;
65753;SDS011;69207;47.502;18.940;2023-04-30T04:09:03;15.40;;;11.40;;
65753;SDS011;69207;47.502;18.940;2023-04-30T04:10:12;16.00;;;10.70;;
65753;SDS011;69207;47.502;18.940;2023-04-30T04:11:15;16.75;;;11.50;;
65753;SDS011;69207;47.502;18.940;2023-04-30T04:12:18;17.45;;;12.00;;
65753;SDS011;69207;47.502;18.940;2023-04-30T04:13:20;16.67;;;10.80;;
65753;SDS011;69207;47.502;18.940;2023-04-30T04:14:23;17.50;;;11.93;;
65753;SDS011;69207;47.502;18.940;2023-04-30T04:15:26;15.85;;;11.20;;
65753;SDS011;69207;47.502;18.940;2023-04-30T04:16:29;15.15;;;10.77;;
65753;SDS011;69207;47.502;18.940;2023-04-30T04:17:32;17.37;;;12.07;;
65753;SDS011;69207;47.502;18.940;2023-04-30T04:18:35;18.83;;;11.60;;
65753;SDS011;69207;47.502;18.940;2023-04-30T04:19:39;18.25;;;12.57;;
65753;SDS011;69207;47.502;18.940;2023-04-30T04:20:42;19.02;;;12.52;;
65753;SDS011;69207;47.502;18.940;2023-04-30T04:21:45;16.50;;;12.10;;
65753;SDS011;69207;47.502;18.940;2023-04-30T04:22:48;17.27;;;11.40;;
65753;SDS011;69207;47.502;18.940;2023-04-30T04:23:51;18.45;;;11.52;;
65753;SDS011;69207;47.502;18.940;2023-04-30T04:24:53;20.33;;;13.15;;
65753;SDS011;69207;47.502;18.940;2023-04-30T04:25:56;17.37;;;12.20;;
65753;SDS011;69207;47.502;18.940;2023-04-30T04:26:59;16.92;;;12.10;;
65753;SDS011;69207;47.502;18.940;2023-04-30T04:28:05;19.83;;;13.85;;
65753;SDS011;69207;47.502;18.940;2023-04-30T04:29:09;19.40;;;13.85;;
65753;SDS011;69207;47.502;18.940;2023-04-30T04:30:12;19.40;;;12.93;;
65753;SDS011;69207;47.502;18.940;2023-04-30T04:31:15;19.10;;;13.40;;
65753;SDS011;69207;47.502;18.940;2023-04-30T04:32:18;20.73;;;13.32;;
65753;SDS011;69207;47.502;18.940;2023-04-30T04:33:21;19.37;;;13.65;;
65753;SDS011;69207;47.502;18.940;2023-04-30T04:34:24;22.23;;;14.57;;
65753;SDS011;69207;47.502;18.940;2023-04-30T04:35:28;22.15;;;14.20;;
65753;SDS011;69207;47.502;18.940;2023-04-30T04:36:30;17.00;;;12.52;;
65753;SDS011;69207;47.502;18.940;2023-04-30T04:37:35;19.15;;;14.07;;
65753;SDS011;69207;47.502;18.940;2023-04-30T04:38:38;21.00;;;14.15;;
65753;SDS011;69207;47.502;18.940;2023-04-30T04:39:41;22.40;;;14.43;;
65753;SDS011;69207;47.502;18.940;2023-04-30T04:40:54;19.77;;;14.23;;
65753;SDS011;69207;47.502;18.940;2023-04-30T04:41:57;20.35;;;14.87;;
65753;SDS011;69207;47.502;18.940;2023-04-30T04:43:00;23.55;;;15.32;;
65753;SDS011;69207;47.502;18.940;2023-04-30T04:44:03;22.13;;;14.87;;
65753;SDS011;69207;47.502;18.940;2023-04-30T04:45:06;21.65;;;14.68;;
65753;SDS011;69207;47.502;18.940;2023-04-30T04:46:09;21.42;;;14.40;;
65753;SDS011;69207;47.502;18.940;2023-04-30T04:47:15;20.85;;;14.45;;
65753;SDS011;69207;47.502;18.940;2023-04-30T04:48:20;21.33;;;14.98;;
65753;SDS011;69207;47.502;18.940;2023-04-30T04:49:23;22.98;;;14.60;;
65753;SDS011;69207;47.502;18.940;2023-04-30T04:50:26;25.12;;;14.02;;
65753;SDS011;69207;47.502;18.940;2023-04-30T04:51:29;19.67;;;13.80;;
65753;SDS011;69207;47.502;18.940;2023-04-30T04:52:33;20.45;;;13.52;;
65753;SDS011;69207;47.502;18.940;2023-04-30T04:53:36;18.25;;;12.88;;
65753;SDS011;69207;47.502;18.940;2023-04-30T04:54:39;18.80;;;13.27;;
65753;SDS011;69207;47.502;18.940;2023-04-30T04:55:41;19.17;;;14.38;;
65753;SDS011;69207;47.502;18.940;2023-04-30T04:56:44;15.75;;;12.45;;
65753;SDS011;69207;47.502;18.940;2023-04-30T04:57:47;18.15;;;13.68;;
65753;SDS011;69207;47.502;18.940;2023-04-30T04:58:50;17.75;;;13.27;;
65753;SDS011;69207;47.502;18.940;2023-04-30T04:59:53;19.23;;;13.65;;
65753;SDS011;69207;47.502;18.940;2023-04-30T05:00:56;19.90;;;13.23;;
65753;SDS011;69207;47.502;18.940;2023-04-30T05:01:59;17.45;;;13.15;;
65753;SDS011;69207;47.502;18.940;2023-04-30T05:03:02;16.37;;;12.77;;
65753;SDS011;69207;47.502;18.940;2023-04-30T05:04:05;16.37;;;12.55;;
65753;SDS011;69207;47.502;18.940;2023-04-30T05:05:11;19.12;;;13.88;;
65753;SDS011;69207;47.502;18.940;2023-04-30T05:06:13;17.95;;;13.35;;
65753;SDS011;69207;47.502;18.940;2023-04-30T05:07:16;18.30;;;13.70;;
65753;SDS011;69207;47.502;18.940;2023-04-30T05:08:19;18.92;;;13.10;;
65753;SDS011;69207;47.502;18.940;2023-04-30T05:09:22;19.55;;;13.40;;
65753;SDS011;69207;47.502;18.940;2023-04-30T05:10:25;19.10;;;13.48;;
65753;SDS011;69207;47.502;18.940;2023-04-30T05:11:28;19.35;;;13.35;;
65753;SDS011;69207;47.502;18.940;2023-04-30T05:12:31;17.15;;;13.48;;
65753;SDS011;69207;47.502;18.940;2023-04-30T05:13:34;22.42;;;14.30;;
65753;SDS011;69207;47.502;18.940;2023-04-30T05:14:37;20.30;;;14.55;;
65753;SDS011;69207;47.502;18.940;2023-04-30T05:15:40;20.10;;;13.95;;
65753;SDS011;69207;47.502;18.940;2023-04-30T05:16:42;18.98;;;13.30;;
65753;SDS011;69207;47.502;18.940;2023-04-30T05:17:46;17.33;;;13.13;;
65753;SDS011;69207;47.502;18.940;2023-04-30T05:18:48;20.92;;;14.35;;
65753;SDS011;69207;47.502;18.940;2023-04-30T05:19:52;19.75;;;14.55;;
65753;SDS011;69207;47.502;18.940;2023-04-30T05:20:55;17.20;;;13.40;;
65753;SDS011;69207;47.502;18.940;2023-04-30T05:21:58;20.48;;;14.48;;
65753;SDS011;69207;47.502;18.940;2023-04-30T05:23:02;19.48;;;14.43;;
65753;SDS011;69207;47.502;18.940;2023-04-30T05:24:05;20.10;;;13.62;;
65753;SDS011;69207;47.502;18.940;2023-04-30T05:25:08;18.60;;;13.48;;
65753;SDS011;69207;47.502;18.940;2023-04-30T05:26:11;18.12;;;13.80;;
65753;SDS011;69207;47.502;18.940;2023-04-30T05:27:13;17.87;;;13.45;;
65753;SDS011;69207;47.502;18.940;2023-04-30T05:28:18;17.25;;;12.80;;
65753;SDS011;69207;47.502;18.940;2023-04-30T05:29:21;17.83;;;13.32;;
65753;SDS011;69207;47.502;18.940;2023-04-30T05:30:24;17.58;;;12.82;;
65753;SDS011;69207;47.502;18.940;2023-04-30T05:31:26;16.92;;;12.82;;
65753;SDS011;69207;47.502;18.940;2023-04-30T05:32:29;18.50;;;13.43;;
65753;SDS011;69207;47.502;18.940;2023-04-30T05:33:32;17.35;;;12.77;;
65753;SDS011;69207;47.502;18.940;2023-04-30T05:34:36;16.87;;;12.20;;
65753;SDS011;69207;47.502;18.940;2023-04-30T05:35:38;17.70;;;12.52;;
65753;SDS011;69207;47.502;18.940;2023-04-30T05:36:41;19.02;;;12.85;;
65753;SDS011;69207;47.502;18.940;2023-04-30T05:37:45;19.50;;;12.70;;
65753;SDS011;69207;47.502;18.940;2023-04-30T05:38:48;16.60;;;12.40;;
65753;SDS011;69207;47.502;18.940;2023-04-30T05:39:51;18.15;;;12.52;;
65753;SDS011;69207;47.502;18.940;2023-04-30T05:40:55;18.55;;;12.52;;
65753;SDS011;69207;47.502;18.940;2023-04-30T05:41:57;17.02;;;12.65;;
65753;SDS011;69207;47.502;18.940;2023-04-30T05:43:00;17.25;;;12.40;;
65753;SDS011;69207;47.502;18.940;2023-04-30T05:44:03;18.98;;;12.25;;
65753;SDS011;69207;47.502;18.940;2023-04-30T05:45:06;16.98;;;12.10;;
65753;SDS011;69207;47.502;18.940;2023-04-30T05:46:09;16.83;;;12.55;;
65753;SDS011;69207;47.502;18.940;2023-04-30T05:47:12;19.67;;;13.05;;
65753;SDS011;69207;47.502;18.940;2023-04-30T05:48:15;14.45;;;11.32;;
65753;SDS011;69207;47.502;18.940;2023-04-30T05:49:18;18.67;;;13.80;;
65753;SDS011;69207;47.502;18.940;2023-04-30T05:50:21;15.75;;;12.55;;
65753;SDS011;69207;47.502;18.940;2023-04-30T05:51:24;16.70;;;12.68;;
65753;SDS011;69207;47.502;18.940;2023-04-30T05:52:27;17.27;;;12.77;;
65753;SDS011;69207;47.502;18.940;2023-04-30T05:53:30;15.60;;;12.05;;
65753;SDS011;69207;47.502;18.940;2023-04-30T05:54:33;17.65;;;12.77;;
65753;SDS011;69207;47.502;18.940;2023-04-30T05:55:36;17.33;;;12.13;;
65753;SDS011;69207;47.502;18.940;2023-04-30T05:56:39;16.60;;;12.48;;
65753;SDS011;69207;47.502;18.940;2023-04-30T05:57:42;16.10;;;11.65;;
65753;SDS011;69207;47.502;18.940;2023-04-30T05:58:45;15.95;;;11.80;;
65753;SDS011;69207;47.502;18.940;2023-04-30T05:59:48;15.90;;;11.52;;
65753;SDS011;69207;47.502;18.940;2023-04-30T06:00:50;14.98;;;11.23;;
65753;SDS011;69207;47.502;18.940;2023-04-30T06:01:53;16.67;;;12.43;;
65753;SDS011;69207;47.502;18.940;2023-04-30T06:02:56;14.82;;;11.27;;
65753;SDS011;69207;47.502;18.940;2023-04-30T06:04:05;17.05;;;12.23;;
65753;SDS011;69207;47.502;18.940;2023-04-30T06:05:10;16.87;;;11.40;;
65753;SDS011;69207;47.502;18.940;2023-04-30T06:06:17;15.23;;;10.93;;
65753;SDS011;69207;47.502;18.940;2023-04-30T06:07:20;15.40;;;11.27;;
65753;SDS011;69207;47.502;18.940;2023-04-30T06:08:23;13.13;;;10.40;;
65753;SDS011;69207;47.502;18.940;2023-04-30T06:09:26;17.20;;;11.65;;
65753;SDS011;69207;47.502;18.940;2023-04-30T06:10:29;13.62;;;11.45;;
65753;SDS011;69207;47.502;18.940;2023-04-30T06:11:32;14.38;;;10.77;;
65753;SDS011;69207;47.502;18.940;2023-04-30T06:12:35;12.88;;;10.60;;
65753;SDS011;69207;47.502;18.940;2023-04-30T06:13:38;14.77;;;10.93;;
65753;SDS011;69207;47.502;18.940;2023-04-30T06:14:41;14.13;;;11.07;;
65753;SDS011;69207;47.502;18.940;2023-04-30T06:15:46;13.30;;;10.10;;
65753;SDS011;69207;47.502;18.940;2023-04-30T06:16:49;13.23;;;9.55;;
65753;SDS011;69207;47.502;18.940;2023-04-30T06:17:52;12.73;;;9.73;;
65753;SDS011;69207;47.502;18.940;2023-04-30T06:18:55;12.93;;;10.05;;
65753;SDS011;69207;47.502;18.940;2023-04-30T06:19:58;12.75;;;9.38;;
65753;SDS011;69207;47.502;18.940;2023-04-30T06:21:03;12.77;;;9.13;;
65753;SDS011;69207;47.502;18.940;2023-04-30T06:22:06;9.55;;;8.45;;
65753;SDS011;69207;47.502;18.940;2023-04-30T06:23:09;11.55;;;8.63;;
65753;SDS011;69207;47.502;18.940;2023-04-30T06:24:12;12.25;;;8.68;;
65753;SDS011;69207;47.502;18.940;2023-04-30T06:25:15;11.15;;;8.18;;
65753;SDS011;69207;47.502;18.940;2023-04-30T06:26:18;9.90;;;7.95;;
65753;SDS011;69207;47.502;18.940;2023-04-30T06:27:21;9.68;;;7.62;;
65753;SDS011;69207;47.502;18.940;2023-04-30T06:28:24;9.07;;;8.00;;
65753;SDS011;69207;47.502;18.940;2023-04-30T06:29:27;10.48;;;7.80;;
65753;SDS011;69207;47.502;18.940;2023-04-30T06:30:30;10.23;;;7.53;;
65753;SDS011;69207;47.502;18.940;2023-04-30T06:31:33;8.80;;;7.68;;
65753;SDS011;69207;47.502;18.940;2023-04-30T06:32:36;12.80;;;8.75;;
65753;SDS011;69207;47.502;18.940;2023-04-30T06:33:39;13.38;;;8.15;;